MMMZ/MZT METAR and TAF weather

Enter ICAO airport designator
Station Type Date Time Source
MMMZ METAR 2019/10/19 07:42 UTC NOAA

MMMZ 190742Z 00000KT 10SM SCT030 BKN090 OVC240 27/25 A2981 RMK 8/477 HZY


Station Type Date Time Source
MMMZ Decoded METAR 2019/10/19 07:42 UTC NOAA

Mazatlan / G. Buelna, Mexico (MMMZ) 23-10N 106-16W
Oct 19, 2019 - 03:42 AM EDT / 2019.10.19 0742 UTC
Wind: Calm:0
Visibility: 10 mile(s):0
Sky conditions: overcast
Temperature: 80 F (27 C)
Dew Point: 77 F (25 C)
Relative Humidity: 88%
Pressure (altimeter): 29.81 in. Hg (1009 hPa)
ob: MMMZ 190742Z 00000KT 10SM SCT030 BKN090 OVC240 27/25 A2981 RMK 8/477 HZY
cycle: 7

Station Type Date Time Source
MMMZ TAF 2019/10/19 06:38 UTC NOAA

TAF MMMZ 190531Z 1906/2012 00000KT P6SM SCT025 BKN090 BKN240 TX32/1920Z TN25/1912Z
FM191800 28008KT P6SM SCT020 SCT090 BKN250
BECMG 2005/2007 33005KT

Example: see airport list